Time;durP1;ratioP1;P1;durP2;ratioP2;P2;SDS_P1;SDS_P2;PMS_P1;PMS_P2;Temp;Humidity;BMP_temperature;BMP_pressure;BME280_temperature;BME280_humidity;BME280_pressure;Samples;Min_cycle;Max_cycle;Signal;HPM_P1;HPM_P2
2022/10/30 00:00:00;;;;;;;27.25;18.13;;;13.70;99.90;;;;;;5136589;27;20049;-48
2022/10/30 00:02:25;;;;;;;26.15;17.10;;;13.60;99.90;;;;;;5136691;27;20142;-49
2022/10/30 00:04:51;;;;;;;28.25;17.60;;;13.60;99.90;;;;;;5129250;27;20050;-44
2022/10/30 00:07:17;;;;;;;27.33;17.40;;;13.60;99.90;;;;;;5129823;27;20035;-47
2022/10/30 00:09:42;;;;;;;27.85;17.98;;;13.60;99.90;;;;;;5126148;27;20455;-49
2022/10/30 00:12:08;;;;;;;24.75;18.23;;;13.60;99.90;;;;;;5118236;27;20392;-53
2022/10/30 00:14:33;;;;;;;26.80;19.05;;;13.50;99.90;;;;;;5137899;27;20529;-49
2022/10/30 00:16:59;;;;;;;26.55;16.75;;;13.50;99.90;;;;;;5137304;27;20415;-47
2022/10/30 00:19:25;;;;;;;28.42;17.70;;;13.50;99.90;;;;;;5136510;27;20501;-48
2022/10/30 00:21:50;;;;;;;27.50;17.58;;;13.40;99.90;;;;;;5136744;27;20039;-52
2022/10/30 00:24:16;;;;;;;22.25;16.08;;;13.50;99.90;;;;;;5136941;27;20038;-49
2022/10/30 00:26:42;;;;;;;25.83;18.70;;;13.50;99.90;;;;;;5136836;27;20039;-47
2022/10/30 00:29:08;;;;;;;29.42;17.13;;;13.40;99.90;;;;;;5137342;27;20046;-53
2022/10/30 00:31:33;;;;;;;31.20;18.20;;;13.50;99.90;;;;;;5136429;27;20515;-49
2022/10/30 00:33:59;;;;;;;29.60;18.13;;;13.40;99.90;;;;;;5137428;27;20039;-50
2022/10/30 00:36:24;;;;;;;25.60;17.23;;;13.40;99.90;;;;;;5135690;27;20504;-52
2022/10/30 00:38:50;;;;;;;29.90;17.63;;;13.30;99.90;;;;;;5136421;27;20150;-52
2022/10/30 00:41:19;;;;;;;25.33;18.30;;;13.30;99.90;;;;;;5136995;27;20442;-49
2022/10/30 00:43:45;;;;;;;29.77;19.02;;;13.30;99.90;;;;;;5141031;27;20058;-49
2022/10/30 00:46:24;;;;;;;27.67;19.13;;;13.30;99.90;;;;;;5139992;27;20091;-54
2022/10/30 00:49:00;;;;;;;34.05;19.27;;;13.30;99.90;;;;;;5140890;27;20074;-47
2022/10/30 00:51:27;;;;;;;32.53;19.17;;;13.20;99.90;;;;;;5139489;27;20046;-51
2022/10/30 00:53:55;;;;;;;30.25;19.27;;;13.20;99.90;;;;;;5140390;27;20488;-51
2022/10/30 00:56:21;;;;;;;26.05;17.90;;;13.10;99.90;;;;;;5139461;27;20039;-47
2022/10/30 00:58:56;;;;;;;28.95;18.85;;;13.20;99.90;;;;;;5121655;27;20390;-48
2022/10/30 01:01:25;;;;;;;28.65;19.10;;;13.20;99.90;;;;;;5121279;27;20502;-49
2022/10/30 01:03:55;;;;;;;28.33;18.90;;;13.20;99.90;;;;;;5140512;27;20524;-50
2022/10/30 01:06:22;;;;;;;25.25;17.60;;;13.30;99.90;;;;;;5125012;27;20050;-50
2022/10/30 01:08:49;;;;;;;31.35;18.40;;;13.20;99.90;;;;;;5129800;27;20047;-44
2022/10/30 01:11:14;;;;;;;23.70;18.60;;;13.10;99.90;;;;;;5139156;27;20574;-52
2022/10/30 01:13:42;;;;;;;26.05;17.70;;;13.10;99.90;;;;;;5140211;27;20218;-52
2022/10/30 01:16:11;;;;;;;29.42;19.00;;;13.20;99.90;;;;;;5107913;27;20055;-52
2022/10/30 01:19:13;;;;;;;25.83;17.83;;;13.10;99.90;;;;;;5139376;27;20057;-53
2022/10/30 01:21:50;;;;;;;30.05;18.40;;;13.10;99.90;;;;;;5138968;27;20042;-50
2022/10/30 01:24:50;;;;;;;31.35;19.13;;;13.10;99.90;;;;;;5140079;27;20490;-45
2022/10/30 01:27:42;;;;;;;33.33;18.25;;;13.10;99.90;;;;;;5137939;27;20395;-44
2022/10/30 01:30:18;;;;;;;27.90;18.80;;;13.10;99.90;;;;;;5138987;27;20117;-52
2022/10/30 01:33:08;;;;;;;27.85;17.63;;;13.10;99.90;;;;;;5140253;27;20367;-46
2022/10/30 01:35:42;;;;;;;24.92;18.15;;;13.10;99.90;;;;;;5125857;27;20429;-47
2022/10/30 01:38:11;;;;;;;24.45;18.90;;;13.10;99.90;;;;;;5120945;27;20121;-47
2022/10/30 01:40:37;;;;;;;31.63;19.05;;;13.20;99.90;;;;;;5139510;27;20039;-54
2022/10/30 01:43:02;;;;;;;29.60;19.67;;;13.10;99.90;;;;;;5139656;27;20035;-47
2022/10/30 01:45:50;;;;;;;28.58;18.80;;;13.10;99.90;;;;;;5139310;27;20114;-53
2022/10/30 01:48:44;;;;;;;28.65;19.85;;;13.10;99.90;;;;;;5138999;27;20460;-50
2022/10/30 01:51:43;;;;;;;29.55;18.15;;;13.20;99.90;;;;;;5139029;27;20043;-45
2022/10/30 01:54:27;;;;;;;25.52;18.08;;;13.10;99.90;;;;;;5138441;27;20054;-50
2022/10/30 01:57:28;;;;;;;24.02;17.73;;;13.20;99.90;;;;;;5138611;27;20074;-51
2022/10/30 02:00:05;;;;;;;27.70;17.67;;;13.10;99.90;;;;;;5138890;27;20069;-48
2022/10/30 02:02:31;;;;;;;27.42;18.50;;;13.10;99.90;;;;;;5103266;27;20082;-51
2022/10/30 02:04:58;;;;;;;27.70;18.15;;;13.10;99.90;;;;;;5111488;27;20423;-51
2022/10/30 02:07:24;;;;;;;35.45;18.80;;;13.10;99.90;;;;;;5111458;27;20031;-51
2022/10/30 02:09:51;;;;;;;30.67;18.83;;;13.10;99.90;;;;;;5126917;27;20069;-50
2022/10/30 02:12:18;;;;;;;27.95;18.27;;;13.20;99.90;;;;;;5120851;27;20047;-50
2022/10/30 02:14:49;;;;;;;25.50;18.25;;;13.10;99.90;;;;;;5120075;27;20133;-49
2022/10/30 02:17:16;;;;;;;29.98;18.67;;;13.10;99.90;;;;;;5138123;27;20039;-52
2022/10/30 02:19:41;;;;;;;26.90;18.25;;;13.10;99.90;;;;;;5138036;27;20479;-51
2022/10/30 02:22:07;;;;;;;33.08;18.40;;;13.10;99.90;;;;;;5138246;27;20042;-53
2022/10/30 02:24:33;;;;;;;29.10;19.50;;;13.10;99.90;;;;;;5138830;27;20062;-48
2022/10/30 02:26:59;;;;;;;27.67;18.27;;;13.10;99.90;;;;;;5137614;27;20468;-49
2022/10/30 02:29:25;;;;;;;35.00;19.10;;;13.00;99.90;;;;;;5138106;27;20065;-47
2022/10/30 02:31:51;;;;;;;28.83;19.58;;;13.00;99.90;;;;;;5137286;27;20503;-48
2022/10/30 02:34:16;;;;;;;27.52;18.75;;;13.00;99.90;;;;;;5138204;27;20046;-46
2022/10/30 02:36:42;;;;;;;25.38;19.13;;;13.00;99.90;;;;;;5138272;27;20031;-47
2022/10/30 02:39:08;;;;;;;28.27;18.38;;;12.90;99.90;;;;;;5138087;27;20407;-52
2022/10/30 02:41:33;;;;;;;31.23;19.58;;;12.90;99.90;;;;;;5119207;27;20106;-49
2022/10/30 02:43:59;;;;;;;24.65;19.35;;;12.90;99.90;;;;;;5138300;27;20043;-47
2022/10/30 02:46:25;;;;;;;33.83;21.02;;;12.90;99.90;;;;;;5136798;27;20058;-44
2022/10/30 02:48:50;;;;;;;30.67;18.52;;;12.90;99.90;;;;;;5137961;27;20429;-52
2022/10/30 02:51:16;;;;;;;26.65;19.02;;;12.90;99.90;;;;;;5136851;27;20110;-49
2022/10/30 02:53:42;;;;;;;35.92;19.77;;;12.90;99.90;;;;;;5137630;27;20426;-49
2022/10/30 02:56:10;;;;;;;30.23;20.52;;;12.80;99.90;;;;;;5137457;27;20519;-52
2022/10/30 02:58:36;;;;;;;29.40;19.77;;;12.80;99.90;;;;;;5138435;27;20038;-47
2022/10/30 03:01:11;;;;;;;29.75;19.13;;;12.90;99.90;;;;;;5116672;27;20517;-49
2022/10/30 03:03:37;;;;;;;30.33;19.50;;;12.90;99.90;;;;;;5118675;27;20474;-46
2022/10/30 03:06:05;;;;;;;33.17;18.60;;;12.90;99.90;;;;;;5121842;27;20034;-49
2022/10/30 03:08:31;;;;;;;26.77;19.10;;;12.90;99.90;;;;;;5093749;27;20054;-51
2022/10/30 03:11:08;;;;;;;25.00;19.58;;;12.90;99.90;;;;;;5116300;27;20043;-52
2022/10/30 03:13:35;;;;;;;37.13;20.38;;;12.80;99.90;;;;;;5138274;27;20039;-47
2022/10/30 03:16:07;;;;;;;28.67;19.15;;;12.80;99.90;;;;;;5137307;27;20054;-49
2022/10/30 03:18:33;;;;;;;28.80;18.42;;;12.80;99.90;;;;;;5118730;27;20365;-49
2022/10/30 03:21:02;;;;;;;30.67;19.80;;;12.90;99.90;;;;;;5136843;27;20153;-47
2022/10/30 03:23:29;;;;;;;32.72;19.33;;;12.70;99.90;;;;;;5137163;27;20050;-45
2022/10/30 03:25:57;;;;;;;31.35;19.42;;;12.80;99.90;;;;;;5137034;27;20031;-55
2022/10/30 03:28:25;;;;;;;30.33;19.67;;;12.80;99.90;;;;;;5137445;27;20053;-48
2022/10/30 03:30:56;;;;;;;34.63;20.50;;;12.90;99.90;;;;;;5117406;27;20094;-53
2022/10/30 03:33:22;;;;;;;34.55;20.25;;;12.80;99.90;;;;;;5137152;27;20043;-50
2022/10/30 03:35:48;;;;;;;28.63;19.83;;;12.90;99.90;;;;;;5136850;27;20130;-43
2022/10/30 03:38:13;;;;;;;35.67;20.48;;;12.80;99.90;;;;;;5101809;27;20375;-48
2022/10/30 03:40:39;;;;;;;34.78;19.60;;;12.80;99.90;;;;;;5136060;27;20386;-45
2022/10/30 03:43:05;;;;;;;35.13;20.25;;;12.80;99.90;;;;;;5137091;27;20311;-44
2022/10/30 03:45:32;;;;;;;29.13;20.05;;;12.80;99.90;;;;;;5136572;27;20051;-54
2022/10/30 03:48:03;;;;;;;26.90;19.40;;;12.80;99.90;;;;;;5137165;27;20685;-44
2022/10/30 03:50:29;;;;;;;27.13;19.90;;;12.80;99.90;;;;;;5136605;27;20117;-49
2022/10/30 03:52:56;;;;;;;32.78;20.70;;;12.70;99.90;;;;;;5136907;27;20567;-47
2022/10/30 03:55:23;;;;;;;32.03;19.77;;;12.60;99.90;;;;;;5135773;27;20054;-52
2022/10/30 03:57:49;;;;;;;29.27;18.83;;;12.70;99.90;;;;;;5136350;27;20112;-47
2022/10/30 04:00:16;;;;;;;29.90;19.33;;;12.70;99.90;;;;;;5136225;27;20039;-53
2022/10/30 04:02:46;;;;;;;30.45;20.63;;;12.70;99.90;;;;;;5118714;27;20541;-53
2022/10/30 04:05:14;;;;;;;31.80;20.33;;;12.60;99.90;;;;;;5126217;27;20443;-54
2022/10/30 04:07:39;;;;;;;30.95;20.80;;;12.60;99.90;;;;;;5113572;27;20080;-49
2022/10/30 04:10:05;;;;;;;28.77;19.80;;;12.60;99.90;;;;;;5126848;27;20154;-45
2022/10/30 04:12:31;;;;;;;33.30;20.70;;;12.60;99.90;;;;;;5137115;27;20551;-46
2022/10/30 04:14:56;;;;;;;28.67;20.08;;;12.60;99.90;;;;;;5137060;27;20052;-48
2022/10/30 04:17:22;;;;;;;28.10;20.10;;;12.70;99.90;;;;;;5139362;27;20381;-54
2022/10/30 04:19:47;;;;;;;36.55;22.45;;;12.60;99.90;;;;;;5140734;27;20190;-47
2022/10/30 04:22:13;;;;;;;31.88;21.17;;;12.60;99.90;;;;;;5141428;27;20486;-47
2022/10/30 04:24:39;;;;;;;30.58;21.02;;;12.60;99.90;;;;;;5140498;27;20476;-47
2022/10/30 04:27:05;;;;;;;35.70;21.00;;;12.50;99.90;;;;;;5140378;27;20043;-44
2022/10/30 04:29:30;;;;;;;35.83;20.90;;;12.60;99.90;;;;;;5140024;27;20051;-51
2022/10/30 04:31:56;;;;;;;34.53;21.65;;;12.50;99.90;;;;;;5139828;27;20046;-50
2022/10/30 04:34:22;;;;;;;31.25;21.38;;;12.50;99.90;;;;;;5140964;27;20563;-52
2022/10/30 04:36:47;;;;;;;30.35;21.10;;;12.50;99.90;;;;;;5140097;27;20043;-49
2022/10/30 04:39:13;;;;;;;34.97;21.67;;;12.50;99.90;;;;;;5141571;27;20459;-51
2022/10/30 04:41:39;;;;;;;29.60;21.02;;;12.40;99.90;;;;;;5139571;27;20035;-50
2022/10/30 04:44:04;;;;;;;33.85;22.27;;;12.40;99.90;;;;;;5140765;27;20043;-46
2022/10/30 04:46:33;;;;;;;32.45;20.42;;;12.40;99.90;;;;;;5120718;27;20396;-43
2022/10/30 04:48:59;;;;;;;29.83;20.75;;;12.40;99.90;;;;;;5140381;27;20518;-47
2022/10/30 04:51:24;;;;;;;30.85;20.15;;;12.40;99.90;;;;;;5120833;27;20046;-46
2022/10/30 04:53:50;;;;;;;34.88;21.90;;;12.40;99.90;;;;;;5121426;27;20050;-48
2022/10/30 04:56:16;;;;;;;36.00;22.60;;;12.30;99.90;;;;;;5120218;27;20047;-54
2022/10/30 04:58:41;;;;;;;40.80;22.20;;;12.30;99.90;;;;;;5140291;27;20069;-50
2022/10/30 05:01:07;;;;;;;30.42;20.73;;;12.30;99.90;;;;;;5139864;27;20047;-52
2022/10/30 05:03:33;;;;;;;37.35;22.30;;;12.30;99.90;;;;;;5140480;27;20081;-54
2022/10/30 05:06:12;;;;;;;31.50;21.40;;;12.30;99.90;;;;;;5124288;27;20404;-49
2022/10/30 05:08:37;;;;;;;27.63;21.00;;;12.20;99.90;;;;;;5131081;27;20043;-54
2022/10/30 05:11:04;;;;;;;32.88;20.83;;;12.20;99.90;;;;;;5137498;27;20046;-52
2022/10/30 05:13:30;;;;;;;29.63;20.80;;;12.10;99.90;;;;;;5140190;27;20099;-43
2022/10/30 05:15:56;;;;;;;34.40;20.30;;;12.10;99.90;;;;;;5139453;27;20043;-47
2022/10/30 05:18:21;;;;;;;34.45;21.45;;;12.00;99.90;;;;;;5139841;27;20054;-43
2022/10/30 05:20:47;;;;;;;32.05;20.23;;;11.90;99.90;;;;;;5139309;27;20425;-54
2022/10/30 05:23:12;;;;;;;35.33;22.42;;;12.00;99.90;;;;;;5141279;27;20556;-47
2022/10/30 05:25:38;;;;;;;33.10;22.00;;;11.90;99.90;;;;;;5121128;27;20035;-55
2022/10/30 05:28:05;;;;;;;39.80;22.40;;;11.90;99.90;;;;;;5140246;27;20130;-46
2022/10/30 05:30:32;;;;;;;34.28;22.52;;;12.00;99.90;;;;;;5131750;27;20070;-47
2022/10/30 05:33:06;;;;;;;36.50;21.67;;;12.00;99.90;;;;;;5139883;27;20077;-51
2022/10/30 05:35:33;;;;;;;35.10;23.77;;;12.00;99.90;;;;;;5103432;27;20310;-54
2022/10/30 05:38:00;;;;;;;32.88;23.20;;;11.90;99.90;;;;;;5139875;27;20047;-47
2022/10/30 05:40:27;;;;;;;41.95;25.02;;;11.90;99.90;;;;;;5138293;27;20074;-46
2022/10/30 05:42:52;;;;;;;38.30;24.73;;;11.90;99.90;;;;;;5138325;27;20380;-52
2022/10/30 05:45:18;;;;;;;37.55;23.88;;;11.90;99.90;;;;;;5138682;27;20122;-49
2022/10/30 05:47:56;;;;;;;35.08;24.58;;;11.80;99.90;;;;;;5132975;27;20382;-44
2022/10/30 05:50:22;;;;;;;34.25;23.50;;;11.80;99.90;;;;;;5119813;27;20316;-49
2022/10/30 05:52:48;;;;;;;32.45;23.45;;;11.80;99.90;;;;;;5139311;27;20518;-53
2022/10/30 05:55:14;;;;;;;35.72;25.42;;;11.90;99.90;;;;;;5121139;27;20039;-52
2022/10/30 05:57:39;;;;;;;37.00;24.90;;;11.80;99.90;;;;;;5138644;27;20039;-44
2022/10/30 06:00:06;;;;;;;32.03;24.08;;;11.70;99.90;;;;;;5138949;27;20054;-43
2022/10/30 06:02:32;;;;;;;35.00;25.00;;;11.80;99.90;;;;;;5138806;27;20051;-50
2022/10/30 06:04:57;;;;;;;36.97;25.45;;;11.80;99.90;;;;;;5130957;27;20433;-49
2022/10/30 06:07:23;;;;;;;37.97;25.70;;;11.80;99.90;;;;;;5132154;27;20340;-52
2022/10/30 06:09:49;;;;;;;37.92;25.98;;;11.70;99.90;;;;;;5127418;27;20464;-53
2022/10/30 06:12:14;;;;;;;42.65;27.13;;;11.70;99.90;;;;;;5138909;27;20091;-47
2022/10/30 06:14:40;;;;;;;37.88;24.17;;;11.80;99.90;;;;;;5138765;27;20100;-44
2022/10/30 06:17:06;;;;;;;38.90;25.25;;;11.70;99.90;;;;;;5138675;27;20042;-51
2022/10/30 06:19:31;;;;;;;38.22;23.40;;;11.80;99.90;;;;;;5119096;27;20452;-54
2022/10/30 06:21:57;;;;;;;31.65;22.65;;;11.70;99.90;;;;;;5119276;27;20055;-49
2022/10/30 06:24:22;;;;;;;34.85;23.60;;;11.70;99.90;;;;;;5120694;27;20224;-49
2022/10/30 06:26:49;;;;;;;34.65;24.02;;;11.80;99.90;;;;;;5138159;27;20074;-52
2022/10/30 06:29:15;;;;;;;34.03;23.98;;;11.70;99.90;;;;;;5138226;27;20085;-55
2022/10/30 06:31:41;;;;;;;34.72;23.50;;;11.60;99.90;;;;;;5137744;27;20125;-46
2022/10/30 06:34:07;;;;;;;34.25;24.02;;;11.60;99.90;;;;;;5138794;27;20034;-56
2022/10/30 06:36:32;;;;;;;36.20;24.95;;;11.60;99.90;;;;;;5102299;27;20065;-51
2022/10/30 06:38:58;;;;;;;32.28;24.80;;;11.60;99.90;;;;;;5138342;27;20793;-47
2022/10/30 06:41:24;;;;;;;39.13;23.38;;;11.70;99.90;;;;;;5137932;27;20131;-49
2022/10/30 06:43:49;;;;;;;35.10;25.13;;;11.70;99.90;;;;;;5138418;27;20094;-50
2022/10/30 06:46:15;;;;;;;34.53;23.02;;;11.70;99.90;;;;;;5144094;27;20585;-55
2022/10/30 06:48:40;;;;;;;34.83;24.98;;;11.80;99.90;;;;;;5139090;27;20077;-51
2022/10/30 06:51:06;;;;;;;43.13;24.00;;;11.70;99.90;;;;;;5138002;27;20113;-45
2022/10/30 06:53:32;;;;;;;37.42;23.35;;;11.70;99.90;;;;;;5138317;27;20047;-45
2022/10/30 06:56:00;;;;;;;35.17;23.05;;;11.80;99.90;;;;;;5136682;27;20097;-46
2022/10/30 06:58:26;;;;;;;36.45;22.88;;;11.80;99.90;;;;;;5137830;27;20039;-52
2022/10/30 07:00:52;;;;;;;36.47;25.20;;;11.80;99.90;;;;;;5137605;27;20054;-48
2022/10/30 07:03:18;;;;;;;35.03;23.15;;;11.80;99.90;;;;;;5138299;27;20042;-52
2022/10/30 07:05:44;;;;;;;32.97;22.23;;;11.90;99.90;;;;;;5105027;27;20043;-44
2022/10/30 07:08:10;;;;;;;32.00;22.70;;;11.90;99.90;;;;;;5133817;27;20071;-49
2022/10/30 07:10:36;;;;;;;34.33;23.67;;;11.90;99.90;;;;;;5130711;27;20043;-53
2022/10/30 07:13:01;;;;;;;37.13;24.15;;;11.90;99.90;;;;;;5137477;27;20053;-52
2022/10/30 07:15:27;;;;;;;34.65;23.73;;;11.90;99.90;;;;;;5136993;27;20849;-47
2022/10/30 07:18:01;;;;;;;33.80;23.25;;;11.90;99.90;;;;;;5137484;27;20038;-48
2022/10/30 07:20:29;;;;;;;32.72;23.92;;;12.00;99.90;;;;;;5135908;27;20101;-50
2022/10/30 07:22:55;;;;;;;30.85;22.67;;;12.10;99.90;;;;;;5137368;27;20047;-48
2022/10/30 07:25:20;;;;;;;33.03;22.60;;;12.00;99.90;;;;;;5136097;27;20049;-52
2022/10/30 07:27:50;;;;;;;34.75;21.40;;;12.20;99.90;;;;;;5137342;27;20061;-52
2022/10/30 07:30:19;;;;;;;40.95;23.40;;;12.10;99.90;;;;;;5136647;27;20066;-48
2022/10/30 07:32:45;;;;;;;33.17;22.52;;;12.20;99.90;;;;;;5137493;27;20050;-51
2022/10/30 07:35:12;;;;;;;36.30;23.42;;;12.20;99.90;;;;;;5118031;27;20445;-48
2022/10/30 07:37:39;;;;;;;32.75;22.02;;;12.30;99.90;;;;;;5118844;27;20039;-50
2022/10/30 07:40:06;;;;;;;35.72;23.20;;;12.40;99.90;;;;;;5118103;27;20553;-44
2022/10/30 07:42:32;;;;;;;31.33;22.67;;;12.40;99.90;;;;;;5137196;27;20444;-51
2022/10/30 07:44:58;;;;;;;34.30;23.15;;;12.40;99.90;;;;;;5135866;27;20756;-49
2022/10/30 07:47:24;;;;;;;32.53;21.58;;;12.50;99.90;;;;;;5137230;27;20047;-55
2022/10/30 07:49:49;;;;;;;36.53;22.92;;;12.60;99.90;;;;;;5136510;27;20379;-51
2022/10/30 07:52:15;;;;;;;32.55;22.77;;;12.70;99.90;;;;;;5118030;27;20035;-55
2022/10/30 07:54:41;;;;;;;31.35;22.17;;;12.70;99.90;;;;;;5137361;27;20042;-46
2022/10/30 07:57:07;;;;;;;27.85;21.52;;;12.80;99.90;;;;;;5137065;27;20594;-52
2022/10/30 07:59:32;;;;;;;32.63;21.40;;;12.90;99.90;;;;;;5134667;27;20375;-53
2022/10/30 08:01:59;;;;;;;31.85;22.15;;;12.90;99.90;;;;;;5135947;27;20053;-44
2022/10/30 08:04:25;;;;;;;28.77;22.20;;;13.00;99.90;;;;;;5132201;27;20384;-56
2022/10/30 08:06:52;;;;;;;29.10;21.45;;;12.90;99.90;;;;;;5125194;27;20050;-48
2022/10/30 08:09:17;;;;;;;31.33;21.73;;;13.10;99.90;;;;;;5106440;27;20488;-46
2022/10/30 08:11:43;;;;;;;29.83;21.25;;;13.20;99.90;;;;;;5136842;27;20130;-48
2022/10/30 08:14:09;;;;;;;38.22;21.40;;;13.20;99.90;;;;;;5135881;27;20047;-44
2022/10/30 08:16:34;;;;;;;29.05;21.75;;;13.20;99.90;;;;;;5135328;27;20590;-45
2022/10/30 08:19:00;;;;;;;32.53;21.77;;;13.40;99.90;;;;;;5135604;27;20101;-49
2022/10/30 08:21:26;;;;;;;31.27;20.90;;;13.40;99.90;;;;;;5134978;27;20039;-52
2022/10/30 08:23:51;;;;;;;31.60;21.70;;;13.50;99.90;;;;;;5135750;27;20126;-45
2022/10/30 08:26:17;;;;;;;32.65;21.60;;;13.60;99.90;;;;;;5135346;27;20070;-50
2022/10/30 08:28:42;;;;;;;28.05;22.08;;;13.60;99.90;;;;;;5135396;27;20480;-51
2022/10/30 08:31:08;;;;;;;34.80;21.52;;;13.70;99.90;;;;;;5134712;27;20050;-50
2022/10/30 08:33:34;;;;;;;29.67;21.83;;;13.70;99.90;;;;;;5117751;27;20046;-48
2022/10/30 08:36:00;;;;;;;33.72;21.92;;;13.80;99.90;;;;;;5135298;27;20046;-50
2022/10/30 08:38:27;;;;;;;32.05;21.52;;;13.80;99.90;;;;;;5117350;27;20129;-50
2022/10/30 08:40:53;;;;;;;33.00;20.90;;;13.80;99.90;;;;;;5135333;27;20349;-53
2022/10/30 08:43:19;;;;;;;29.25;21.20;;;13.90;99.90;;;;;;5135698;27;20429;-46
2022/10/30 08:45:45;;;;;;;33.75;20.85;;;14.10;99.90;;;;;;5135058;27;20038;-52
2022/10/30 08:48:14;;;;;;;28.60;20.90;;;14.10;99.90;;;;;;5135971;27;20094;-51
2022/10/30 08:50:40;;;;;;;26.27;20.60;;;14.20;99.90;;;;;;5117050;27;20183;-45
2022/10/30 08:53:09;;;;;;;35.33;22.33;;;14.20;99.90;;;;;;5134898;27;20198;-49
2022/10/30 08:55:35;;;;;;;31.40;21.65;;;14.30;99.90;;;;;;5134216;27;20042;-44
2022/10/30 08:58:00;;;;;;;34.17;22.70;;;14.30;99.90;;;;;;5134667;27;20446;-48
2022/10/30 09:00:27;;;;;;;30.58;20.40;;;14.50;99.90;;;;;;5134004;27;20054;-51
2022/10/30 09:02:52;;;;;;;26.80;20.08;;;14.40;99.90;;;;;;5136816;27;20046;-50
2022/10/30 09:05:18;;;;;;;30.80;21.02;;;14.50;99.90;;;;;;5127662;27;20043;-46
2022/10/30 09:07:45;;;;;;;35.42;21.90;;;14.60;99.90;;;;;;5134514;27;20046;-50
2022/10/30 09:10:11;;;;;;;30.75;19.80;;;14.60;99.90;;;;;;5128665;27;20423;-49
2022/10/30 09:12:37;;;;;;;35.58;21.52;;;14.60;99.90;;;;;;5118901;27;20433;-49
2022/10/30 09:15:03;;;;;;;30.75;22.15;;;14.70;99.90;;;;;;5137210;27;20519;-48
2022/10/30 09:17:29;;;;;;;31.00;21.55;;;14.80;99.90;;;;;;5136634;27;20380;-49
2022/10/30 09:19:54;;;;;;;33.90;22.23;;;14.80;99.90;;;;;;5137060;27;20074;-50
2022/10/30 09:22:20;;;;;;;32.60;20.38;;;14.90;99.90;;;;;;5138270;27;20049;-46
2022/10/30 09:24:46;;;;;;;30.58;21.15;;;15.00;99.90;;;;;;5118909;27;20042;-51
2022/10/30 09:27:11;;;;;;;31.45;21.48;;;15.10;99.90;;;;;;5138528;27;20043;-47
2022/10/30 09:29:37;;;;;;;29.08;21.13;;;15.10;99.90;;;;;;5137148;27;20047;-56
2022/10/30 09:32:07;;;;;;;30.17;21.08;;;15.10;99.90;;;;;;5138040;27;20165;-48
2022/10/30 09:34:33;;;;;;;27.80;20.33;;;15.10;99.90;;;;;;5138255;27;20395;-49
2022/10/30 09:36:59;;;;;;;28.75;19.52;;;15.20;99.90;;;;;;5137419;27;20035;-50
2022/10/30 09:39:24;;;;;;;26.45;18.98;;;15.30;99.90;;;;;;5137436;27;20361;-49
2022/10/30 09:42:20;;;;;;;27.38;19.98;;;15.30;99.90;;;;;;5137747;27;20035;-49
2022/10/30 09:45:12;;;;;;;32.78;20.15;;;15.40;99.90;;;;;;5136829;27;20193;-52
2022/10/30 09:48:02;;;;;;;24.88;19.52;;;15.50;99.90;;;;;;5134920;27;20107;-53
2022/10/30 09:50:35;;;;;;;28.73;19.77;;;15.50;99.90;;;;;;5134343;27;20039;-45
2022/10/30 09:53:29;;;;;;;30.67;20.88;;;15.60;99.90;;;;;;5136913;27;20042;-48
2022/10/30 09:56:21;;;;;;;;;;;15.70;99.90;;;;;;5137946;27;20445;-53
2022/10/30 09:59:23;;;;;;;34.22;20.45;;;15.70;99.90;;;;;;5132536;27;19938;-50
2022/10/30 10:01:49;;;;;;;32.22;18.58;;;15.80;99.90;;;;;;5119875;27;20182;-51
2022/10/30 10:04:22;;;;;;;29.60;19.52;;;15.90;99.90;;;;;;5117043;27;20392;-53
2022/10/30 10:06:55;;;;;;;29.58;20.63;;;15.90;99.90;;;;;;5108313;27;20479;-47
2022/10/30 10:09:23;;;;;;;30.00;20.00;;;16.00;99.90;;;;;;5091183;27;20049;-54
2022/10/30 10:12:01;;;;;;;29.27;19.15;;;16.10;99.90;;;;;;5138105;27;20089;-48
2022/10/30 10:14:31;;;;;;;27.60;20.05;;;16.10;99.90;;;;;;5136792;27;20039;-49
2022/10/30 10:17:01;;;;;;;27.17;19.20;;;16.20;99.90;;;;;;5136954;27;20081;-49
2022/10/30 10:19:48;;;;;;;29.15;19.17;;;16.20;99.90;;;;;;5135294;27;20039;-50
2022/10/30 10:22:22;;;;;;;28.30;19.83;;;16.30;99.90;;;;;;5134725;27;20391;-52
2022/10/30 10:24:48;;;;;;;27.80;20.73;;;16.30;99.90;;;;;;5117071;27;20042;-51
2022/10/30 10:27:43;;;;;;;34.60;21.00;;;16.30;99.90;;;;;;5133291;27;20078;-52
2022/10/30 10:30:22;;;;;;;27.92;17.85;;;16.30;99.90;;;;;;5136040;27;20045;-52
2022/10/30 10:33:04;;;;;;;30.85;20.13;;;16.40;99.90;;;;;;5137365;27;20039;-45
2022/10/30 10:35:52;;;;;;;24.48;19.40;;;16.40;99.90;;;;;;5136657;27;20074;-44
2022/10/30 10:38:52;;;;;;;28.15;20.38;;;16.40;99.90;;;;;;5137128;27;20046;-51
2022/10/30 10:41:55;;;;;;;25.17;18.35;;;16.50;99.90;;;;;;5137223;27;20047;-48
2022/10/30 10:44:31;;;;;;;25.50;19.02;;;16.50;99.90;;;;;;5118509;27;20486;-50
2022/10/30 10:47:16;;;;;;;28.40;18.30;;;16.60;99.90;;;;;;5136444;27;20513;-52
2022/10/30 10:50:15;;;;;;;26.85;17.95;;;16.70;99.90;;;;;;5136151;27;20878;-48
2022/10/30 10:52:57;;;;;;;26.67;19.05;;;16.80;99.90;;;;;;5136955;27;20403;-55
2022/10/30 10:55:32;;;;;;;24.17;18.73;;;16.90;99.90;;;;;;5137042;27;20352;-54
2022/10/30 10:58:22;;;;;;;29.00;19.15;;;16.90;99.90;;;;;;5119662;27;20042;-47
2022/10/30 11:00:48;;;;;;;25.65;18.83;;;17.00;99.90;;;;;;5136526;27;20064;-48
2022/10/30 11:03:20;;;;;;;27.58;18.63;;;17.00;99.90;;;;;;5138625;27;20043;-54
2022/10/30 11:05:48;;;;;;;27.08;18.63;;;17.10;99.90;;;;;;5123919;27;20043;-56
2022/10/30 11:08:30;;;;;;;30.35;19.33;;;17.20;99.90;;;;;;5133166;27;20054;-45
2022/10/30 11:11:01;;;;;;;25.73;18.70;;;17.20;99.90;;;;;;5133803;27;20126;-54
2022/10/30 11:13:33;;;;;;;31.45;20.02;;;17.30;99.90;;;;;;5138308;27;20035;-52
2022/10/30 11:16:17;;;;;;;31.67;18.58;;;17.30;99.90;;;;;;5136802;27;20053;-51
2022/10/30 11:18:44;;;;;;;27.83;20.90;;;17.40;99.90;;;;;;5137130;27;20491;-56
2022/10/30 11:21:16;;;;;;;30.42;18.25;;;17.30;99.90;;;;;;5137047;27;20551;-45
2022/10/30 11:23:46;;;;;;;23.95;18.35;;;17.40;99.90;;;;;;5136792;27;20046;-52
2022/10/30 11:26:21;;;;;;;30.58;18.88;;;17.40;99.90;;;;;;5137045;27;20065;-49
2022/10/30 11:29:22;;;;;;;24.33;17.67;;;17.40;99.90;;;;;;5118408;27;20081;-56
2022/10/30 11:32:01;;;;;;;33.10;16.52;;;17.50;99.90;;;;;;5137541;27;20039;-47
2022/10/30 11:34:33;;;;;;;25.77;18.33;;;17.50;99.90;;;;;;5137027;27;20368;-51
2022/10/30 11:36:58;;;;;;;30.02;17.25;;;17.60;99.90;;;;;;5136900;27;20522;-51
2022/10/30 11:39:30;;;;;;;26.98;17.25;;;17.60;99.90;;;;;;5136740;27;20050;-48
2022/10/30 11:42:13;;;;;;;28.90;15.02;;;17.70;99.90;;;;;;5136785;27;20047;-48
2022/10/30 11:44:47;;;;;;;27.15;17.65;;;17.70;99.90;;;;;;5136156;27;20466;-51
2022/10/30 11:47:14;;;;;;;24.33;16.75;;;17.70;99.90;;;;;;5136565;27;20480;-50
2022/10/30 11:49:47;;;;;;;22.30;15.85;;;17.70;99.90;;;;;;5117789;27;20041;-44
2022/10/30 11:52:17;;;;;;;25.10;16.52;;;17.80;99.90;;;;;;5137572;27;20456;-54
2022/10/30 11:54:48;;;;;;;28.60;17.02;;;17.80;99.90;;;;;;5136380;27;20126;-51
2022/10/30 11:57:34;;;;;;;22.27;17.33;;;17.90;99.90;;;;;;5136331;27;20095;-47
2022/10/30 12:00:01;;;;;;;28.45;17.85;;;17.90;99.90;;;;;;5136743;27;20383;-48
2022/10/30 12:02:29;;;;;;;22.58;16.33;;;17.90;99.90;;;;;;5136036;27;20039;-48
2022/10/30 12:05:26;;;;;;;27.48;17.17;;;17.90;99.90;;;;;;5127797;27;20455;-45
2022/10/30 12:08:07;;;;;;;24.08;16.55;;;18.00;99.90;;;;;;5133235;27;20076;-50
2022/10/30 12:10:53;;;;;;;24.90;15.80;;;17.90;99.90;;;;;;5130013;27;20312;-49
2022/10/30 12:13:21;;;;;;;26.75;18.60;;;17.90;99.90;;;;;;5136093;27;20435;-52
2022/10/30 12:15:50;;;;;;;27.05;18.35;;;17.90;99.90;;;;;;5135796;27;20480;-45
2022/10/30 12:18:24;;;;;;;23.20;16.55;;;18.00;99.90;;;;;;5136733;27;20508;-53
2022/10/30 12:20:53;;;;;;;23.75;16.58;;;18.00;99.90;;;;;;5135415;27;20129;-49
2022/10/30 12:23:23;;;;;;;33.95;20.00;;;18.10;99.90;;;;;;5118943;27;20046;-52
2022/10/30 12:25:51;;;;;;;25.45;17.33;;;18.10;99.90;;;;;;5136660;27;20395;-50
2022/10/30 12:28:21;;;;;;;21.85;16.23;;;18.10;99.90;;;;;;5135385;27;20240;-44
2022/10/30 12:31:01;;;;;;;29.27;18.15;;;18.10;99.90;;;;;;5134853;27;20034;-45
2022/10/30 12:33:41;;;;;;;29.15;16.63;;;18.10;99.90;;;;;;5135610;27;20080;-46
2022/10/30 12:36:13;;;;;;;23.85;17.15;;;18.20;99.90;;;;;;5135143;27;20039;-46
2022/10/30 12:38:43;;;;;;;29.45;18.00;;;18.30;99.90;;;;;;5139460;27;20034;-53
2022/10/30 12:41:25;;;;;;;23.58;16.00;;;18.20;99.90;;;;;;5139485;27;20042;-49